Time;durP1;ratioP1;P1;durP2;ratioP2;P2;SDS_P1;SDS_P2;PMS_P1;PMS_P2;Temp;Humidity;BMP_temperature;BMP_pressure;BME280_temperature;BME280_humidity;BME280_pressure;Samples;Min_cycle;Max_cycle;Signal;HPM_P1;HPM_P2
2022/10/27 00:01:17;;;;;;;6.80;4.88;;;;;;;13.43;87.04;101512.13;5055395;28;20137;-63
2022/10/27 00:03:44;;;;;;;8.38;4.60;;;;;;;13.42;87.15;101508.63;5052379;28;20136;-64
2022/10/27 00:06:11;;;;;;;9.77;4.40;;;;;;;13.46;87.79;101501.34;5051916;28;20072;-65
2022/10/27 00:08:38;;;;;;;6.43;4.90;;;;;;;13.48;87.28;101511.88;5064545;28;20048;-64
2022/10/27 00:11:06;;;;;;;10.77;5.07;;;;;;;13.44;87.22;101511.19;5056395;28;20051;-65
2022/10/27 00:13:34;;;;;;;9.10;4.78;;;;;;;13.37;87.40;101517.75;5047690;28;20044;-65
2022/10/27 00:16:04;;;;;;;12.68;6.30;;;;;;;13.34;87.65;101520.59;5036882;28;20045;-65
2022/10/27 00:18:31;;;;;;;9.82;5.93;;;;;;;13.27;89.43;101525.34;5048231;28;20459;-65
2022/10/27 00:21:05;;;;;;;8.35;5.38;;;;;;;13.11;90.75;101527.97;5041465;28;20048;-65
2022/10/27 00:23:32;;;;;;;10.32;5.88;;;;;;;13.04;92.93;101531.88;5056304;28;20057;-65
2022/10/27 00:26:00;;;;;;;8.50;4.85;;;;;;;12.98;91.06;101534.00;5055892;28;20049;-64
2022/10/27 00:28:27;;;;;;;10.23;5.80;;;;;;;13.02;90.16;101533.75;5058517;28;20060;-64
2022/10/27 00:31:04;;;;;;;12.30;5.95;;;;;;;13.04;89.87;101546.88;5042937;28;20049;-65
2022/10/27 00:33:32;;;;;;;9.60;5.32;;;;;;;13.05;89.29;101538.00;5046494;28;20063;-65
2022/10/27 00:36:10;;;;;;;11.55;5.80;;;;;;;13.04;89.78;101536.31;5053097;28;20538;-63
2022/10/27 00:38:37;;;;;;;12.73;5.28;;;;;;;13.01;90.56;101544.41;5059634;28;20546;-66
2022/10/27 00:41:05;;;;;;;11.60;5.70;;;;;;;13.00;89.87;101545.34;5057351;28;20059;-65
2022/10/27 00:43:37;;;;;;;10.07;4.90;;;;;;;12.95;90.30;101540.31;5066275;28;20049;-65
2022/10/27 00:46:19;;;;;;;13.48;4.93;;;;;;;12.98;89.82;101547.22;5059320;28;20041;-65
2022/10/27 00:48:47;;;;;;;10.25;5.10;;;;;;;12.90;91.59;101550.28;5054202;28;20045;-63
2022/10/27 00:51:16;;;;;;;7.43;4.78;;;;;;;12.82;92.22;101552.47;5043066;28;20055;-63
2022/10/27 00:53:44;;;;;;;7.47;4.65;;;;;;;12.75;92.34;101554.59;5057904;28;20060;-63
2022/10/27 00:56:12;;;;;;;9.85;5.22;;;;;;;12.75;92.77;101562.53;5055984;28;20041;-64
2022/10/27 00:58:39;;;;;;;8.70;5.03;;;;;;;12.80;91.99;101570.22;5045450;28;20071;-64
2022/10/27 01:01:06;;;;;;;8.25;4.40;;;;;;;12.79;91.23;101566.72;5057247;28;20041;-64
2022/10/27 01:03:34;;;;;;;8.50;4.50;;;;;;;12.81;91.11;101575.41;5048575;28;20045;-65
2022/10/27 01:06:01;;;;;;;7.18;4.85;;;;;;;12.80;91.46;101567.56;5040650;28;20056;-63
2022/10/27 01:08:28;;;;;;;8.27;4.55;;;;;;;12.78;91.53;101569.41;5052508;28;20522;-64
2022/10/27 01:10:55;;;;;;;9.55;5.57;;;;;;;12.80;90.52;101562.28;5065494;28;20057;-65
2022/10/27 01:13:23;;;;;;;6.50;4.22;;;;;;;12.86;89.91;101577.81;5058520;28;20060;-64
2022/10/27 01:16:32;;;;;;;7.65;5.03;;;;;;;12.88;91.86;101570.66;5059818;28;20052;-64
2022/10/27 01:19:26;;;;;;;8.23;3.92;;;;;;;12.81;91.37;101577.19;5011648;28;20057;-64
2022/10/27 01:21:57;;;;;;;7.68;4.93;;;;;;;12.82;90.63;101571.81;5033885;28;20129;-64
2022/10/27 01:24:53;;;;;;;8.75;4.47;;;;;;;12.84;90.26;101580.53;5043400;28;20144;-64
2022/10/27 01:27:20;;;;;;;;;;;;;;;12.79;90.10;101572.00;5044050;28;20625;-63
2022/10/27 01:30:08;;;;;;;13.18;5.38;;;;;;;12.74;91.43;101576.66;5058387;28;20361;-62
2022/10/27 01:32:41;;;;;;;8.63;4.43;;;;;;;12.72;92.05;101575.88;5045294;28;20053;-65
2022/10/27 01:35:33;;;;;;;10.45;5.07;;;;;;;12.70;91.67;101587.47;5049146;28;20063;-65
2022/10/27 01:38:16;;;;;;;7.45;3.92;;;;;;;12.72;90.85;101582.97;5065960;28;20062;-64
2022/10/27 01:40:46;;;;;;;8.68;4.97;;;;;;;12.76;90.69;101579.22;5055711;28;20059;-63
2022/10/27 01:43:17;;;;;;;8.48;4.90;;;;;;;12.72;91.26;101578.53;5057654;28;20049;-64
2022/10/27 01:45:46;;;;;;;7.90;4.53;;;;;;;12.68;91.39;101580.47;5036279;28;20140;-64
2022/10/27 01:48:14;;;;;;;11.27;4.55;;;;;;;12.73;90.65;101587.31;5048284;28;20144;-64
2022/10/27 01:50:41;;;;;;;12.85;5.70;;;;;;;12.71;90.39;101579.47;5042325;28;20140;-65
2022/10/27 01:53:29;;;;;;;7.30;4.65;;;;;;;12.67;91.01;101580.56;5042002;28;20063;-65
2022/10/27 01:56:02;;;;;;;12.10;4.57;;;;;;;12.68;90.77;101591.03;5048169;28;20136;-65
2022/10/27 01:58:49;;;;;;;9.82;4.70;;;;;;;12.70;90.48;101584.81;5047788;28;20061;-64
2022/10/27 02:01:34;;;;;;;13.60;4.60;;;;;;;12.72;89.85;101591.75;5043982;28;20483;-65
2022/10/27 02:04:18;;;;;;;9.60;4.60;;;;;;;12.73;90.53;101597.88;5045251;28;20131;-64
2022/10/27 02:07:00;;;;;;;10.43;4.85;;;;;;;12.69;90.21;101594.53;5048046;28;20075;-65
2022/10/27 02:09:41;;;;;;;9.57;4.10;;;;;;;12.65;90.65;101603.56;5045528;28;20132;-64
2022/10/27 02:12:29;;;;;;;5.90;4.05;;;;;;;12.68;90.65;101606.03;5053451;28;20135;-65
2022/10/27 02:14:59;;;;;;;9.30;4.82;;;;;;;12.69;90.19;101607.75;5038107;28;20064;-64
2022/10/27 02:17:31;;;;;;;7.70;3.92;;;;;;;12.64;90.58;101602.69;5047049;28;20063;-64
2022/10/27 02:20:01;;;;;;;6.80;3.88;;;;;;;12.66;89.84;101611.41;5045987;28;20136;-63
2022/10/27 02:22:30;;;;;;;11.07;6.03;;;;;;;12.68;89.45;101611.31;5065585;28;20135;-64
2022/10/27 02:24:58;;;;;;;10.90;4.88;;;;;;;12.67;90.54;101610.47;5044366;28;20044;-62
2022/10/27 02:27:36;;;;;;;10.77;4.93;;;;;;;12.63;90.55;101608.94;5044982;28;20118;-65
2022/10/27 02:30:05;;;;;;;8.38;4.50;;;;;;;12.58;90.95;101612.75;5044517;28;20127;-62
2022/10/27 02:32:32;;;;;;;10.05;4.95;;;;;;;12.57;90.38;101605.75;5038046;28;20136;-65
2022/10/27 02:35:01;;;;;;;6.35;4.10;;;;;;;12.59;90.26;101607.38;5048116;28;20045;-64
2022/10/27 02:37:37;;;;;;;9.43;4.72;;;;;;;12.58;90.60;101610.97;5058873;28;20084;-63
2022/10/27 02:40:05;;;;;;;9.63;4.15;;;;;;;12.57;90.26;101611.91;5055753;28;20056;-64
2022/10/27 02:42:32;;;;;;;7.05;4.20;;;;;;;12.58;90.95;101620.66;5052146;28;20053;-62
2022/10/27 02:44:59;;;;;;;13.48;5.43;;;;;;;12.59;91.92;101610.00;5034752;28;20049;-64
2022/10/27 02:47:26;;;;;;;9.45;4.82;;;;;;;12.52;92.14;101613.03;5053792;28;20468;-63
2022/10/27 02:49:54;;;;;;;7.82;5.20;;;;;;;12.52;91.78;101613.94;5046170;28;20049;-64
2022/10/27 02:52:21;;;;;;;10.88;5.18;;;;;;;12.44;92.48;101610.81;5044368;28;20549;-64
2022/10/27 02:54:48;;;;;;;7.38;4.82;;;;;;;12.39;92.75;101615.47;5046296;28;20148;-64
2022/10/27 02:57:16;;;;;;;7.90;5.05;;;;;;;12.37;93.05;101622.59;5046223;28;20060;-64
2022/10/27 02:59:43;;;;;;;10.65;5.35;;;;;;;12.33;92.31;101631.59;5046328;28;20134;-65
2022/10/27 03:02:17;;;;;;;11.00;4.97;;;;;;;12.31;92.83;101634.34;5056311;28;20052;-65
2022/10/27 03:04:44;;;;;;;12.32;5.80;;;;;;;12.33;94.96;101636.88;5053540;28;20044;-61
2022/10/27 03:07:11;;;;;;;11.23;5.45;;;;;;;12.29;94.17;101633.56;5060385;28;20132;-65
2022/10/27 03:09:38;;;;;;;9.23;5.38;;;;;;;12.32;93.53;101627.28;5053402;28;20052;-64
2022/10/27 03:12:06;;;;;;;10.23;5.38;;;;;;;12.33;93.18;101629.81;5052202;28;20059;-65
2022/10/27 03:14:33;;;;;;;7.95;4.63;;;;;;;12.35;92.85;101635.91;5043409;28;20050;-64
2022/10/27 03:17:00;;;;;;;9.55;4.20;;;;;;;12.38;91.81;101633.13;5042999;28;20041;-64
2022/10/27 03:19:27;;;;;;;10.77;5.40;;;;;;;12.38;92.25;101643.69;5047847;28;20132;-65
2022/10/27 03:21:54;;;;;;;8.18;5.07;;;;;;;12.36;91.99;101642.03;5060414;28;20052;-65
2022/10/27 03:24:21;;;;;;;9.13;4.28;;;;;;;12.37;92.23;101643.72;5063564;28;20066;-65
2022/10/27 03:26:49;;;;;;;12.20;4.78;;;;;;;12.37;91.69;101647.22;5042037;28;20365;-65
2022/10/27 03:29:16;;;;;;;8.88;4.45;;;;;;;12.40;91.51;101647.06;5055205;28;20057;-63
2022/10/27 03:31:43;;;;;;;12.63;4.32;;;;;;;12.34;92.65;101651.81;5048243;28;20048;-64
2022/10/27 03:34:10;;;;;;;9.23;4.95;;;;;;;12.33;92.08;101650.94;5058583;28;20072;-65
2022/10/27 03:36:38;;;;;;;9.02;5.05;;;;;;;12.33;91.90;101647.44;5048566;28;20505;-64
2022/10/27 03:39:05;;;;;;;7.15;4.55;;;;;;;12.31;92.51;101654.59;5067987;28;20143;-65
2022/10/27 03:41:32;;;;;;;10.18;5.32;;;;;;;12.31;91.79;101658.09;5062726;28;20048;-66
2022/10/27 03:43:59;;;;;;;7.47;4.60;;;;;;;12.30;92.13;101659.03;5056895;28;20052;-65
2022/10/27 03:46:27;;;;;;;9.80;4.38;;;;;;;12.28;92.29;101657.38;5054256;28;20076;-65
2022/10/27 03:48:54;;;;;;;8.45;4.35;;;;;;;12.27;94.13;101661.81;5055886;28;20085;-64
2022/10/27 03:51:21;;;;;;;11.82;5.20;;;;;;;12.29;92.67;101661.72;5057628;28;20064;-64
2022/10/27 03:53:48;;;;;;;14.60;5.35;;;;;;;12.26;93.22;101664.56;5068641;28;20049;-66
2022/10/27 03:56:15;;;;;;;11.05;5.88;;;;;;;12.27;92.60;101668.91;5052124;28;20123;-63
2022/10/27 03:58:42;;;;;;;15.23;5.90;;;;;;;12.24;93.25;101669.88;5065574;28;20064;-65
2022/10/27 04:01:10;;;;;;;10.57;4.90;;;;;;;12.21;93.00;101667.41;5057028;28;20140;-64
2022/10/27 04:03:38;;;;;;;10.30;4.50;;;;;;;12.22;92.74;101679.69;5054008;28;20498;-64
2022/10/27 04:06:05;;;;;;;11.00;5.78;;;;;;;12.23;93.58;101681.38;5044612;28;20132;-66
2022/10/27 04:08:32;;;;;;;11.63;5.82;;;;;;;12.21;93.24;101682.41;5053856;28;20056;-63
2022/10/27 04:10:59;;;;;;;10.05;4.57;;;;;;;12.21;93.06;101682.41;5056682;28;20135;-65
2022/10/27 04:13:26;;;;;;;9.73;5.68;;;;;;;12.24;92.77;101682.22;5052281;28;20486;-66
2022/10/27 04:16:00;;;;;;;9.48;5.72;;;;;;;12.24;93.01;101687.50;5049661;28;20137;-63
2022/10/27 04:18:27;;;;;;;11.38;5.03;;;;;;;12.19;93.38;101687.75;5038720;28;20045;-65
2022/10/27 04:20:59;;;;;;;10.80;5.57;;;;;;;12.20;93.16;101697.34;5050636;28;20057;-65
2022/10/27 04:23:26;;;;;;;9.25;5.32;;;;;;;12.18;92.99;101691.31;5048971;28;20056;-65
2022/10/27 04:25:53;;;;;;;11.18;5.60;;;;;;;12.20;93.00;101704.44;5038591;28;20045;-66
2022/10/27 04:28:20;;;;;;;8.77;5.40;;;;;;;12.18;93.63;101701.88;5057043;28;20056;-65
2022/10/27 04:30:48;;;;;;;8.55;5.32;;;;;;;12.18;93.67;101703.66;5054059;28;20569;-62
2022/10/27 04:33:15;;;;;;;8.40;4.65;;;;;;;12.14;93.83;101702.94;5051041;28;20132;-65
2022/10/27 04:35:42;;;;;;;7.63;5.07;;;;;;;12.17;93.45;101708.09;5044859;28;20147;-64
2022/10/27 04:38:09;;;;;;;11.00;5.85;;;;;;;12.21;93.23;101719.38;5057794;28;20577;-65
2022/10/27 04:40:36;;;;;;;9.35;4.68;;;;;;;12.13;94.50;101719.72;5050391;28;20385;-65
2022/10/27 04:43:04;;;;;;;8.35;4.53;;;;;;;12.11;93.84;101719.81;5043513;28;20055;-66
2022/10/27 04:45:32;;;;;;;7.57;4.38;;;;;;;12.15;93.67;101720.50;5042428;28;20689;-65
2022/10/27 04:47:59;;;;;;;10.98;5.03;;;;;;;12.15;93.86;101717.84;5063103;28;20163;-65
2022/10/27 04:50:26;;;;;;;7.50;4.68;;;;;;;12.15;93.62;101720.50;5050123;28;20046;-65
2022/10/27 04:52:59;;;;;;;7.28;5.28;;;;;;;12.16;94.23;101715.16;5054506;28;20049;-63
2022/10/27 04:55:27;;;;;;;11.23;5.03;;;;;;;12.14;94.13;101718.78;5057292;28;20136;-64
2022/10/27 04:57:54;;;;;;;9.93;5.60;;;;;;;12.07;95.09;101722.66;5060172;28;20044;-65
2022/10/27 05:00:22;;;;;;;8.57;4.50;;;;;;;12.03;95.41;101723.75;5067071;28;20080;-65
2022/10/27 05:02:54;;;;;;;10.93;4.82;;;;;;;12.03;94.83;101723.75;5047071;28;20060;-63
2022/10/27 05:05:23;;;;;;;10.50;5.43;;;;;;;12.04;94.75;101728.09;5040102;28;20140;-65
2022/10/27 05:07:55;;;;;;;13.32;5.57;;;;;;;11.99;95.94;101728.28;5063222;28;20124;-65
2022/10/27 05:10:23;;;;;;;8.43;4.90;;;;;;;11.94;96.30;101737.38;5057961;28;20058;-63
2022/10/27 05:12:50;;;;;;;7.70;4.95;;;;;;;11.94;95.73;101742.66;5064756;28;20045;-65
2022/10/27 05:15:18;;;;;;;7.82;4.82;;;;;;;11.96;96.04;101741.63;5045791;28;20530;-66
2022/10/27 05:17:45;;;;;;;7.07;4.93;;;;;;;11.99;95.23;101743.28;5049024;28;20120;-63
2022/10/27 05:20:12;;;;;;;8.57;5.47;;;;;;;11.99;94.79;101744.13;5041707;28;20402;-63
2022/10/27 05:22:40;;;;;;;9.05;5.53;;;;;;;12.02;94.60;101751.03;5052138;28;20124;-65
2022/10/27 05:25:07;;;;;;;10.93;4.75;;;;;;;12.04;95.49;101750.03;5049293;28;20520;-64
2022/10/27 05:27:35;;;;;;;9.00;4.57;;;;;;;12.05;95.06;101753.53;5054051;28;20100;-65
2022/10/27 05:30:04;;;;;;;6.50;4.60;;;;;;;12.05;94.65;101758.81;5060857;28;20059;-66
2022/10/27 05:32:31;;;;;;;6.93;5.10;;;;;;;12.02;94.74;101766.88;5053215;28;20143;-64
2022/10/27 05:34:58;;;;;;;10.35;6.15;;;;;;;11.99;94.88;101765.25;5042682;28;20045;-65
2022/10/27 05:37:26;;;;;;;7.72;4.90;;;;;;;11.98;94.83;101763.53;5060934;28;20061;-64
2022/10/27 05:39:53;;;;;;;10.55;5.97;;;;;;;11.97;95.08;101764.44;5054554;28;20132;-66
2022/10/27 05:42:20;;;;;;;7.85;5.47;;;;;;;11.93;95.03;101767.31;5048948;28;20057;-65
2022/10/27 05:44:47;;;;;;;7.22;4.93;;;;;;;11.94;94.86;101769.03;5040095;28;20136;-65
2022/10/27 05:47:14;;;;;;;7.50;4.50;;;;;;;11.96;95.25;101778.56;5052162;28;20164;-65
2022/10/27 05:49:41;;;;;;;11.95;4.82;;;;;;;11.99;95.61;101772.31;5061756;28;20059;-64
2022/10/27 05:52:09;;;;;;;8.50;5.30;;;;;;;11.97;95.51;101774.16;5049333;28;20127;-65
2022/10/27 05:54:36;;;;;;;7.93;4.72;;;;;;;11.98;95.17;101782.00;5053276;28;20168;-65
2022/10/27 05:57:03;;;;;;;9.70;5.82;;;;;;;11.98;95.80;101773.22;5049050;28;20056;-66
2022/10/27 05:59:30;;;;;;;10.32;5.40;;;;;;;11.98;95.77;101770.56;5034871;28;20049;-62
2022/10/27 06:01:58;;;;;;;10.13;5.90;;;;;;;11.94;95.91;101775.16;5037679;28;20417;-64
2022/10/27 06:04:25;;;;;;;13.88;6.50;;;;;;;11.89;95.80;101767.47;5058327;28;20044;-64
2022/10/27 06:06:52;;;;;;;10.25;5.50;;;;;;;11.94;96.92;101777.81;5059388;28;20127;-64
2022/10/27 06:09:19;;;;;;;12.48;5.55;;;;;;;11.96;97.94;101777.72;5067727;28;20143;-65
2022/10/27 06:11:46;;;;;;;10.98;5.95;;;;;;;11.92;98.12;101777.00;5057155;28;20087;-64
2022/10/27 06:14:14;;;;;;;15.85;6.03;;;;;;;11.89;98.16;101771.88;5044692;28;20053;-64
2022/10/27 06:16:41;;;;;;;11.40;5.63;;;;;;;11.81;98.75;101769.56;5049234;28;20179;-65
2022/10/27 06:19:08;;;;;;;9.55;5.90;;;;;;;11.74;100.00;101775.16;5052757;28;20401;-65
2022/10/27 06:21:35;;;;;;;8.77;5.43;;;;;;;11.70;99.85;101777.09;5049980;28;20143;-63
2022/10/27 06:24:02;;;;;;;7.75;5.10;;;;;;;11.73;99.03;101779.59;5051601;28;20108;-64
2022/10/27 06:26:34;;;;;;;10.02;4.82;;;;;;;11.78;99.15;101774.97;5048953;28;20061;-67
2022/10/27 06:29:01;;;;;;;10.07;5.25;;;;;;;11.81;98.86;101774.84;5068509;28;20076;-63
2022/10/27 06:31:29;;;;;;;14.15;6.20;;;;;;;11.86;99.21;101772.00;5055976;28;20140;-64
2022/10/27 06:33:56;;;;;;;9.93;5.80;;;;;;;11.87;98.61;101786.91;5041099;28;20425;-63
2022/10/27 06:36:23;;;;;;;9.57;5.63;;;;;;;11.89;98.68;101790.34;5062527;28;20060;-65
2022/10/27 06:38:50;;;;;;;10.55;5.78;;;;;;;11.82;98.59;101792.41;5054260;28;20041;-65
2022/10/27 06:41:17;;;;;;;15.40;5.53;;;;;;;11.84;98.41;101798.47;5053754;28;20052;-65
2022/10/27 06:43:44;;;;;;;9.23;5.70;;;;;;;11.87;98.37;101794.84;5048952;28;20099;-63
2022/10/27 06:46:11;;;;;;;11.73;6.05;;;;;;;11.86;98.60;101798.41;5062520;28;20057;-65
2022/10/27 06:48:38;;;;;;;9.57;5.47;;;;;;;11.86;98.23;101799.25;5055551;28;20064;-62
2022/10/27 06:51:06;;;;;;;13.95;6.18;;;;;;;11.85;99.07;101797.56;5055646;28;20051;-65
2022/10/27 06:53:33;;;;;;;12.68;5.80;;;;;;;11.87;98.73;101797.47;5053019;28;20136;-65
2022/10/27 06:56:00;;;;;;;13.52;5.38;;;;;;;11.90;99.11;101805.25;5045619;28;20413;-64
2022/10/27 06:58:27;;;;;;;12.15;6.05;;;;;;;11.93;98.74;101796.31;5055394;28;20063;-65
2022/10/27 07:00:54;;;;;;;12.98;6.13;;;;;;;11.96;98.30;101804.97;5053085;28;20144;-63
2022/10/27 07:03:21;;;;;;;10.65;5.78;;;;;;;12.01;99.28;101802.13;5056696;28;20132;-64
2022/10/27 07:05:48;;;;;;;19.45;5.60;;;;;;;12.03;98.74;101816.13;5043424;28;20059;-65
2022/10/27 07:08:16;;;;;;;13.43;5.63;;;;;;;12.08;99.14;101819.41;5052933;28;20037;-65
2022/10/27 07:10:43;;;;;;;11.05;4.95;;;;;;;12.12;98.79;101820.97;5045993;28;20578;-64
2022/10/27 07:13:10;;;;;;;11.00;5.97;;;;;;;12.16;99.64;101818.13;5045351;28;20512;-65
2022/10/27 07:15:38;;;;;;;12.90;6.15;;;;;;;12.21;99.86;101824.97;5057512;28;20059;-64
2022/10/27 07:18:06;;;;;;;12.18;5.88;;;;;;;12.23;99.89;101821.31;5056621;28;20049;-66
2022/10/27 07:20:35;;;;;;;14.30;6.88;;;;;;;12.26;99.83;101817.69;5060096;28;20139;-65
2022/10/27 07:23:02;;;;;;;13.50;7.43;;;;;;;12.27;100.00;101825.53;5055932;28;20079;-65
2022/10/27 07:25:30;;;;;;;11.23;6.38;;;;;;;12.34;100.00;101826.97;5055048;28;20656;-65
2022/10/27 07:27:58;;;;;;;19.55;8.05;;;;;;;12.31;100.00;101824.44;5059607;28;20410;-65
2022/10/27 07:30:30;;;;;;;10.45;6.07;;;;;;;12.32;100.00;101834.06;5050877;28;20539;-62
2022/10/27 07:32:57;;;;;;;19.13;6.25;;;;;;;12.39;100.00;101834.66;5054024;28;20077;-66
2022/10/27 07:35:24;;;;;;;15.63;6.75;;;;;;;12.48;100.00;101834.22;5041798;28;20088;-64
2022/10/27 07:37:52;;;;;;;16.27;6.65;;;;;;;12.51;100.00;101828.78;5041160;28;20112;-65
2022/10/27 07:40:21;;;;;;;13.70;5.68;;;;;;;12.54;100.00;101828.63;5049214;28;20525;-65
2022/10/27 07:42:50;;;;;;;14.60;7.55;;;;;;;12.58;100.00;101837.28;5060916;28;20045;-64
2022/10/27 07:45:20;;;;;;;12.82;6.57;;;;;;;12.64;100.00;101851.03;5045990;28;20938;-64
2022/10/27 07:47:49;;;;;;;12.93;5.53;;;;;;;12.70;100.00;101849.03;5038918;28;20942;-63
2022/10/27 07:50:17;;;;;;;11.40;5.47;;;;;;;12.81;100.00;101838.81;5041490;28;20386;-63
2022/10/27 07:52:46;;;;;;;12.05;6.10;;;;;;;12.95;100.00;101841.63;5050654;28;20478;-64
2022/10/27 07:55:15;;;;;;;14.50;5.63;;;;;;;13.03;100.00;101841.25;5043789;28;20127;-64
2022/10/27 07:57:43;;;;;;;10.32;6.10;;;;;;;13.11;100.00;101844.38;5046408;28;20055;-64
2022/10/27 08:00:13;;;;;;;10.50;5.47;;;;;;;13.21;100.00;101844.75;5056855;28;20438;-64
2022/10/27 08:02:40;;;;;;;11.80;6.43;;;;;;;13.27;100.00;101850.63;5050973;28;20057;-64
2022/10/27 08:05:08;;;;;;;8.43;5.43;;;;;;;13.34;100.00;101852.03;5044823;28;20084;-64
2022/10/27 08:07:35;;;;;;;15.55;6.93;;;;;;;13.43;100.00;101850.69;5035232;28;20060;-64
2022/10/27 08:10:03;;;;;;;10.23;7.30;;;;;;;13.46;100.00;101862.91;5053649;28;20131;-65
2022/10/27 08:12:30;;;;;;;13.40;6.43;;;;;;;13.51;100.00;101852.94;5043873;28;20164;-64
2022/10/27 08:14:57;;;;;;;12.82;6.45;;;;;;;13.57;100.00;101847.34;5049259;28;20131;-64
2022/10/27 08:17:27;;;;;;;11.43;6.22;;;;;;;13.63;100.00;101852.31;5043645;28;20057;-64
2022/10/27 08:19:54;;;;;;;12.20;6.95;;;;;;;13.69;100.00;101862.59;5047409;28;20211;-64
2022/10/27 08:22:21;;;;;;;14.15;6.70;;;;;;;13.77;100.00;101854.22;5053702;28;20420;-63
2022/10/27 08:24:49;;;;;;;13.60;6.82;;;;;;;13.82;100.00;101855.69;5047788;28;20049;-64
2022/10/27 08:27:16;;;;;;;11.23;6.65;;;;;;;13.85;100.00;101860.81;5046377;28;20583;-63
2022/10/27 08:29:43;;;;;;;11.35;6.20;;;;;;;13.88;100.00;101851.88;5057059;28;20131;-64
2022/10/27 08:32:10;;;;;;;12.02;6.93;;;;;;;13.93;100.00;101863.06;5040492;28;20613;-64
2022/10/27 08:34:37;;;;;;;12.93;6.35;;;;;;;13.99;100.00;101869.81;5050918;28;20447;-63
2022/10/27 08:37:04;;;;;;;14.45;7.22;;;;;;;14.01;100.00;101860.88;5055265;28;20072;-63
2022/10/27 08:39:31;;;;;;;13.43;7.25;;;;;;;14.07;100.00;101867.63;5041381;28;20129;-64
2022/10/27 08:42:05;;;;;;;12.10;6.53;;;;;;;14.10;100.00;101870.13;5054479;28;20053;-64
2022/10/27 08:44:52;;;;;;;21.10;7.80;;;;;;;14.14;100.00;101872.53;5042426;28;20098;-64
2022/10/27 08:47:21;;;;;;;13.90;6.88;;;;;;;14.18;100.00;101865.25;5046889;28;20128;-64
2022/10/27 08:49:53;;;;;;;13.00;7.13;;;;;;;14.23;100.00;101870.28;5049880;28;20124;-64
2022/10/27 08:52:27;;;;;;;19.80;7.80;;;;;;;14.27;100.00;101872.69;5050299;28;20481;-64
2022/10/27 08:54:59;;;;;;;10.85;6.70;;;;;;;14.30;100.00;101869.88;5049480;28;20061;-64
2022/10/27 08:57:32;;;;;;;14.43;6.70;;;;;;;14.42;99.83;101866.56;5044394;28;20103;-64
2022/10/27 09:00:08;;;;;;;11.57;6.47;;;;;;;14.50;99.65;101871.47;5043301;28;20065;-64
2022/10/27 09:02:53;;;;;;;11.98;6.82;;;;;;;14.57;99.34;101877.28;5043750;28;20153;-64
2022/10/27 09:05:40;;;;;;;13.23;6.90;;;;;;;14.64;99.37;101881.31;5050875;28;20064;-63
2022/10/27 09:08:22;;;;;;;;;;;;;;;14.70;99.27;101878.31;5050262;28;20128;-64
2022/10/27 09:11:33;;;;;;;11.13;5.70;;;;;;;14.83;97.91;101878.47;5047000;28;19951;-64
2022/10/27 09:14:06;;;;;;;11.30;6.57;;;;;;;14.95;97.56;101883.09;5039647;28;20048;-64
2022/10/27 09:16:50;;;;;;;15.38;6.18;;;;;;;15.02;97.55;101883.56;5047705;28;20187;-64
2022/10/27 09:19:22;;;;;;;15.95;6.90;;;;;;;15.06;97.37;101872.69;5052040;28;20136;-63
2022/10/27 09:21:50;;;;;;;12.75;6.15;;;;;;;15.10;97.61;101868.94;5046444;28;20155;-64
2022/10/27 09:24:18;;;;;;;11.80;5.78;;;;;;;15.18;97.18;101879.09;5053468;28;20048;-65
2022/10/27 09:26:47;;;;;;;12.00;5.22;;;;;;;15.28;96.96;101871.47;5048095;28;20140;-63
2022/10/27 09:29:16;;;;;;;9.35;5.75;;;;;;;15.37;96.22;101878.88;5045697;28;20084;-64
2022/10/27 09:31:47;;;;;;;12.23;5.55;;;;;;;15.46;95.62;101867.72;5042006;28;20049;-64
2022/10/27 09:34:42;;;;;;;12.13;6.25;;;;;;;15.55;95.47;101877.78;5043243;28;20136;-64
2022/10/27 09:37:19;;;;;;;10.13;4.97;;;;;;;15.64;95.01;101873.75;5048608;28;20063;-64
2022/10/27 09:39:48;;;;;;;11.50;5.03;;;;;;;15.78;94.49;101870.25;5049375;28;20094;-64
2022/10/27 09:42:16;;;;;;;11.52;5.10;;;;;;;15.84;94.57;101868.06;5044791;28;20086;-64
2022/10/27 09:44:54;;;;;;;9.70;5.85;;;;;;;15.94;94.48;101879.00;5045731;28;20124;-64
2022/10/27 09:47:23;;;;;;;11.07;5.20;;;;;;;16.03;93.66;101878.44;5052695;28;20064;-64
2022/10/27 09:49:52;;;;;;;10.57;4.80;;;;;;;16.10;93.42;101874.44;5049673;28;20112;-64
2022/10/27 09:52:27;;;;;;;10.32;6.25;;;;;;;16.18;93.37;101874.81;5044776;28;20061;-64
2022/10/27 09:54:55;;;;;;;11.77;5.07;;;;;;;16.23;93.07;101879.00;5058570;28;20136;-64
2022/10/27 09:57:32;;;;;;;11.18;5.07;;;;;;;16.28;92.82;101880.41;5059775;28;20551;-64
2022/10/27 10:00:04;;;;;;;7.75;4.25;;;;;;;16.38;92.11;101876.19;5048510;28;20557;-64
2022/10/27 10:02:39;;;;;;;11.52;4.38;;;;;;;16.42;91.66;101876.88;5043722;28;20075;-64
2022/10/27 10:05:38;;;;;;;11.88;4.63;;;;;;;16.51;90.83;101875.44;5052522;28;20059;-65
2022/10/27 10:08:24;;;;;;;16.30;4.85;;;;;;;16.66;89.72;101883.28;5043848;28;20247;-65
2022/10/27 10:11:17;;;;;;;14.52;5.13;;;;;;;16.68;89.42;101881.38;5055227;28;20466;-65
2022/10/27 10:13:56;;;;;;;13.90;5.85;;;;;;;16.78;89.44;101875.47;5049754;28;20044;-64
2022/10/27 10:16:23;;;;;;;8.07;4.38;;;;;;;16.86;89.05;101882.00;5050913;28;20489;-64
2022/10/27 10:19:01;;;;;;;11.13;4.35;;;;;;;16.94;88.46;101876.19;5050419;28;20041;-64
2022/10/27 10:22:00;;;;;;;10.40;4.63;;;;;;;17.04;87.52;101877.28;5053162;28;20131;-64
2022/10/27 10:24:35;;;;;;;14.57;5.40;;;;;;;17.04;87.49;101877.28;5040976;28;20063;-64
2022/10/27 10:27:04;;;;;;;15.52;6.15;;;;;;;17.12;86.90;101879.44;5050150;28;20136;-64
2022/10/27 10:29:37;;;;;;;15.35;5.78;;;;;;;17.13;86.94;101878.50;5056918;28;20080;-65
2022/10/27 10:32:20;;;;;;;12.45;4.90;;;;;;;17.21;87.16;101886.81;5043399;28;20528;-64
2022/10/27 10:34:50;;;;;;;10.52;4.93;;;;;;;17.30;86.72;101882.69;5036923;28;20048;-64
2022/10/27 10:37:29;;;;;;;9.95;5.30;;;;;;;17.36;86.49;101880.44;5053290;28;20057;-62
2022/10/27 10:40:13;;;;;;;10.88;4.38;;;;;;;17.46;86.42;101870.03;5048551;28;20045;-65
2022/10/27 10:42:48;;;;;;;8.25;4.75;;;;;;;17.54;86.22;101873.03;5044745;28;20088;-65
2022/10/27 10:45:21;;;;;;;11.10;4.97;;;;;;;17.65;85.16;101875.81;5048209;28;20048;-65
2022/10/27 10:48:12;;;;;;;13.18;5.10;;;;;;;17.74;84.55;101878.81;5044389;28;20084;-65
2022/10/27 10:50:46;;;;;;;13.80;5.45;;;;;;;17.86;83.66;101869.97;5047995;28;20057;-64
2022/10/27 10:53:23;;;;;;;9.93;5.27;;;;;;;18.11;82.72;101867.31;5040348;28;20972;-65
2022/10/27 10:56:00;;;;;;;11.77;5.53;;;;;;;18.37;81.77;101872.56;5046520;28;20140;-64
2022/10/27 10:58:29;;;;;;;11.65;4.55;;;;;;;18.58;81.01;101868.34;5049376;28;20048;-65
2022/10/27 11:00:59;;;;;;;13.93;4.22;;;;;;;18.80;79.91;101869.47;5054430;28;20536;-64
2022/10/27 11:03:36;;;;;;;8.93;4.72;;;;;;;18.90;78.98;101866.00;5036967;28;20139;-64
2022/10/27 11:06:04;;;;;;;6.13;3.65;;;;;;;19.05;78.57;101872.03;5052765;28;20128;-64
2022/10/27 11:08:37;;;;;;;18.38;4.40;;;;;;;19.19;77.32;101879.00;5046428;28;20061;-65
2022/10/27 11:11:19;;;;;;;12.35;4.20;;;;;;;19.43;77.65;101868.28;5053898;28;20041;-65
2022/10/27 11:13:56;;;;;;;7.07;3.15;;;;;;;19.67;74.73;101865.56;5033161;28;20135;-65
2022/10/27 11:16:23;;;;;;;10.32;2.95;;;;;;;19.83;74.60;101868.75;5044390;28;20079;-66
2022/10/27 11:18:57;;;;;;;6.45;2.85;;;;;;;20.09;72.93;101856.00;5040918;28;20502;-65
2022/10/27 11:21:39;;;;;;;9.57;3.63;;;;;;;20.20;71.84;101858.66;5042419;28;20057;-64
2022/10/27 11:24:27;;;;;;;5.72;2.58;;;;;;;20.23;72.33;101849.56;5051793;28;21284;-64
2022/10/27 11:26:57;;;;;;;17.48;4.30;;;;;;;20.40;70.81;101845.53;5048952;28;20045;-64
2022/10/27 11:29:36;;;;;;;7.82;2.88;;;;;;;20.58;70.83;101848.53;5052876;28;20053;-64
2022/10/27 11:32:20;;;;;;;7.20;2.38;;;;;;;20.95;70.48;101841.00;5046754;28;20058;-64
2022/10/27 11:35:00;;;;;;;6.53;2.92;;;;;;;21.29;69.29;101843.50;5049837;28;20370;-64
2022/10/27 11:37:49;;;;;;;10.57;3.40;;;;;;;21.52;66.98;101842.41;5051839;28;20143;-63